createdAt,value
2023-03-21T00:00:39.762Z,19.30
2023-03-21T00:06:58.401Z,20.50
2023-03-21T00:10:14.401Z,20.10
2023-03-21T00:13:19.225Z,21.70
2023-03-21T00:16:26.266Z,21.40
2023-03-21T00:19:31.969Z,25.60
2023-03-21T00:22:35.970Z,22.80
2023-03-21T00:25:38.877Z,19.30
2023-03-21T00:28:49.155Z,20.40
2023-03-21T00:31:51.945Z,25.10
2023-03-21T00:35:02.527Z,23.80
2023-03-21T00:38:12.443Z,17.50
2023-03-21T00:41:25.870Z,22.90
2023-03-21T00:44:37.948Z,23.40
2023-03-21T00:47:41.006Z,22.80
2023-03-21T00:50:46.954Z,20.30
2023-03-21T00:53:49.778Z,22.90
2023-03-21T00:56:52.848Z,21.20
2023-03-21T01:00:07.798Z,20.90
2023-03-21T01:03:23.765Z,25.00
2023-03-21T01:06:27.875Z,28.60
2023-03-21T01:09:30.860Z,21.30
2023-03-21T01:12:33.653Z,21.80
2023-03-21T01:15:42.551Z,21.70
2023-03-21T01:18:45.363Z,23.50
2023-03-21T01:21:48.127Z,18.00
2023-03-21T01:24:55.561Z,26.60
2023-03-21T01:28:01.169Z,23.50
2023-03-21T01:31:05.029Z,22.60
2023-03-21T01:34:07.752Z,20.20
2023-03-21T01:37:10.588Z,18.10
2023-03-21T01:40:22.175Z,21.20
2023-03-21T01:43:40.465Z,18.10
2023-03-21T01:47:00.128Z,29.50
2023-03-21T01:50:10.421Z,23.40
2023-03-21T01:53:14.403Z,19.50
2023-03-21T01:56:24.897Z,18.50
2023-03-21T01:59:33.019Z,22.10
2023-03-21T02:02:37.708Z,21.60
2023-03-21T02:05:53.020Z,17.10
2023-03-21T02:08:57.534Z,16.70
2023-03-21T02:12:01.406Z,24.00
2023-03-21T02:15:05.762Z,22.60
2023-03-21T02:18:22.421Z,23.50
2023-03-21T02:21:49.849Z,16.10
2023-03-21T02:25:29.147Z,20.70
2023-03-21T02:28:50.785Z,18.80
2023-03-21T02:32:31.425Z,22.90
2023-03-21T02:35:54.206Z,19.30
2023-03-21T02:39:04.862Z,17.60
2023-03-21T02:42:26.140Z,18.10
2023-03-21T02:45:38.666Z,18.10
2023-03-21T02:49:10.726Z,21.30
2023-03-21T02:52:32.106Z,18.50
2023-03-21T02:55:43.185Z,23.10
2023-03-21T02:58:48.510Z,24.00
2023-03-21T03:01:52.895Z,21.20
2023-03-21T03:04:55.771Z,24.90
2023-03-21T03:08:10.834Z,18.30
2023-03-21T03:11:24.899Z,18.70
2023-03-21T03:15:02.292Z,20.70
2023-03-21T03:18:15.549Z,22.60
2023-03-21T03:21:34.222Z,17.70
2023-03-21T03:24:54.550Z,16.80
2023-03-21T03:27:59.455Z,19.40
2023-03-21T03:31:09.748Z,21.50
2023-03-21T03:34:21.706Z,19.70
2023-03-21T03:37:29.746Z,15.60
2023-03-21T03:40:41.213Z,20.10
2023-03-21T03:43:51.262Z,22.60
2023-03-21T03:47:02.528Z,22.30
2023-03-21T03:50:20.835Z,21.50
2023-03-21T03:53:28.592Z,21.60
2023-03-21T03:56:31.984Z,22.30
2023-03-21T03:59:37.091Z,19.30
2023-03-21T04:02:41.390Z,25.20
2023-03-21T04:05:46.452Z,21.20
2023-03-21T04:08:49.223Z,19.30
2023-03-21T04:11:52.011Z,17.70
2023-03-21T04:14:57.088Z,18.90
2023-03-21T04:18:04.815Z,23.40
2023-03-21T04:21:12.966Z,19.50
2023-03-21T04:24:16.115Z,24.20
2023-03-21T04:27:18.935Z,14.90
2023-03-21T04:30:24.964Z,18.40
2023-03-21T04:33:27.672Z,20.40
2023-03-21T04:36:39.311Z,17.50
2023-03-21T04:39:42.976Z,16.00
2023-03-21T04:42:47.666Z,15.80
2023-03-21T04:45:52.205Z,19.70
2023-03-21T04:48:55.220Z,21.90
2023-03-21T04:51:58.165Z,24.20
2023-03-21T04:55:04.069Z,17.40
2023-03-21T04:58:06.838Z,18.60
2023-03-21T05:01:09.645Z,18.10
2023-03-21T05:04:14.758Z,23.60
2023-03-21T05:07:17.782Z,16.20
2023-03-21T05:10:20.511Z,17.20
2023-03-21T05:13:23.407Z,16.80
2023-03-21T05:16:30.631Z,18.10
2023-03-21T05:19:36.502Z,18.50
2023-03-21T05:22:40.665Z,19.00
2023-03-21T05:25:43.356Z,17.00
2023-03-21T05:28:49.176Z,17.80
2023-03-21T05:31:51.893Z,17.10
2023-03-21T05:34:54.579Z,18.60
2023-03-21T05:37:57.357Z,14.30
2023-03-21T05:41:00.666Z,14.10
2023-03-21T05:44:04.186Z,20.10
2023-03-21T05:47:07.180Z,19.50
2023-03-21T05:50:13.574Z,19.30
2023-03-21T05:53:19.187Z,15.30
2023-03-21T05:56:22.294Z,13.80
2023-03-21T05:59:27.155Z,15.70
2023-03-21T06:02:29.919Z,17.80
2023-03-21T06:05:32.664Z,21.60
2023-03-21T06:08:35.362Z,17.10
2023-03-21T06:11:42.268Z,12.90
2023-03-21T06:14:44.969Z,14.20
2023-03-21T06:17:47.651Z,15.50
2023-03-21T06:20:54.446Z,18.80
2023-03-21T06:23:57.112Z,17.40
2023-03-21T06:26:59.859Z,13.70
2023-03-21T06:30:04.637Z,14.40
2023-03-21T06:33:09.918Z,16.10
2023-03-21T06:36:12.781Z,18.30
2023-03-21T06:39:17.652Z,14.90
2023-03-21T06:42:20.508Z,16.50
2023-03-21T06:45:25.508Z,13.50
2023-03-21T06:48:28.742Z,16.20
2023-03-21T06:51:31.548Z,17.90
2023-03-21T06:54:34.256Z,13.80
2023-03-21T06:57:37.088Z,12.90
2023-03-21T07:00:39.963Z,13.80
2023-03-21T07:03:42.720Z,16.50
2023-03-21T07:06:45.475Z,18.50
2023-03-21T07:09:50.643Z,15.30
2023-03-21T07:12:53.346Z,13.20
2023-03-21T07:15:56.103Z,15.70
2023-03-21T07:18:58.885Z,17.90
2023-03-21T07:22:04.999Z,20.10
2023-03-21T07:25:09.229Z,16.60
2023-03-21T07:28:12.116Z,13.80
2023-03-21T07:31:17.379Z,18.60
2023-03-21T07:34:20.867Z,24.30
2023-03-21T07:37:24.077Z,17.00
2023-03-21T07:40:26.775Z,16.50
2023-03-21T07:43:29.434Z,17.50
2023-03-21T07:46:32.219Z,20.70
2023-03-21T07:49:34.962Z,21.40
2023-03-21T07:52:37.673Z,20.10
2023-03-21T07:55:40.797Z,21.20
2023-03-21T07:58:43.742Z,16.90
2023-03-21T08:01:47.604Z,18.50
2023-03-21T08:04:50.679Z,21.50
2023-03-21T08:07:53.721Z,15.40
2023-03-21T08:10:56.668Z,14.00
2023-03-21T08:14:01.001Z,20.40
2023-03-21T08:17:04.914Z,19.50
2023-03-21T08:20:10.442Z,23.80
2023-03-21T08:23:14.164Z,16.90
2023-03-21T08:26:19.807Z,14.90
2023-03-21T08:29:25.406Z,15.90
2023-03-21T08:32:30.354Z,16.60
2023-03-21T08:35:33.615Z,20.50
2023-03-21T08:38:37.069Z,15.70
2023-03-21T08:41:42.486Z,13.50
2023-03-21T08:44:46.039Z,19.80
2023-03-21T08:47:49.977Z,17.90
2023-03-21T08:50:52.734Z,23.50
2023-03-21T08:53:55.446Z,15.50
2023-03-21T08:56:58.390Z,14.50
2023-03-21T09:00:03.905Z,13.60
2023-03-21T09:03:06.591Z,17.60
2023-03-21T09:06:16.433Z,18.20
2023-03-21T09:09:19.238Z,12.10
2023-03-21T09:12:21.880Z,11.60
2023-03-21T09:15:28.850Z,12.90
2023-03-21T09:18:50.760Z,16.60
2023-03-21T09:22:03.888Z,14.60
2023-03-21T09:25:11.611Z,11.60
2023-03-21T09:28:14.534Z,10.60
2023-03-21T09:31:21.773Z,13.80
2023-03-21T09:34:24.762Z,17.40
2023-03-21T09:37:28.027Z,16.70
2023-03-21T09:40:45.941Z,10.00
2023-03-21T09:44:05.756Z,10.10
2023-03-21T09:47:20.746Z,10.90
2023-03-21T09:50:31.701Z,15.70
2023-03-21T09:53:40.300Z,16.10
2023-03-21T09:56:51.622Z,10.10
2023-03-21T09:59:56.505Z,11.70
2023-03-21T10:03:06.876Z,13.50
2023-03-21T10:06:16.440Z,14.90
2023-03-21T10:09:22.987Z,18.50
2023-03-21T10:12:30.707Z,11.50
2023-03-21T10:15:33.524Z,11.70
2023-03-21T10:18:38.092Z,12.10
2023-03-21T10:22:03.396Z,15.20
2023-03-21T10:25:08.085Z,14.90
2023-03-21T10:28:17.157Z,10.30
2023-03-21T10:31:25.516Z,11.50
2023-03-21T10:34:33.448Z,14.30
2023-03-21T10:37:36.533Z,18.50
2023-03-21T10:40:39.284Z,16.30
2023-03-21T10:43:45.011Z,10.80
2023-03-21T10:46:59.240Z,11.70
2023-03-21T10:50:07.668Z,13.50
2023-03-21T10:53:27.526Z,15.00
2023-03-21T10:56:35.481Z,15.90
2023-03-21T10:59:57.730Z,9.50
2023-03-21T11:03:01.038Z,13.90
2023-03-21T11:06:28.013Z,17.10
2023-03-21T11:09:47.068Z,18.10
2023-03-21T11:12:49.774Z,23.30
2023-03-21T11:15:58.987Z,14.70
2023-03-21T11:19:11.052Z,14.90
2023-03-21T11:22:15.095Z,15.60
2023-03-21T11:25:27.414Z,17.30
2023-03-21T11:28:39.324Z,18.40
2023-03-21T11:31:42.143Z,11.80
2023-03-21T11:34:48.897Z,12.00
2023-03-21T11:37:54.730Z,14.20
2023-03-21T11:41:01.756Z,16.60
2023-03-21T11:44:05.523Z,16.80
2023-03-21T11:47:10.948Z,16.70
2023-03-21T11:50:13.589Z,10.00
2023-03-21T11:53:22.530Z,10.10
2023-03-21T11:56:34.517Z,14.20
2023-03-21T11:59:52.713Z,15.70
2023-03-21T12:03:28.872Z,16.90
2023-03-21T12:06:42.820Z,16.40
2023-03-21T12:10:12.793Z,11.60
2023-03-21T12:13:27.581Z,10.70
2023-03-21T12:16:51.474Z,13.50
2023-03-21T12:20:10.122Z,14.40
2023-03-21T12:23:28.949Z,14.50
2023-03-21T12:26:39.197Z,9.20
2023-03-21T12:29:54.174Z,8.70
2023-03-21T12:33:49.437Z,11.30
2023-03-21T12:37:39.237Z,11.90
2023-03-21T12:41:22.192Z,11.80
2023-03-21T12:44:29.726Z,7.30
2023-03-21T12:47:35.822Z,8.80
2023-03-21T12:50:39.068Z,11.20
2023-03-21T12:54:03.337Z,12.40
2023-03-21T12:57:16.051Z,12.60
2023-03-21T13:00:27.314Z,13.00
2023-03-21T13:03:53.276Z,8.80
2023-03-21T13:07:00.142Z,9.50
2023-03-21T13:10:12.343Z,10.50
2023-03-21T13:13:19.945Z,12.20
2023-03-21T13:16:31.143Z,13.90
2023-03-21T13:19:42.832Z,12.20
2023-03-21T13:22:46.288Z,8.20
2023-03-21T13:25:51.548Z,8.60
2023-03-21T13:29:00.504Z,12.30
2023-03-21T13:32:15.380Z,12.60
2023-03-21T13:35:44.639Z,13.20
2023-03-21T13:38:53.770Z,16.30
2023-03-21T13:42:03.691Z,8.60
2023-03-21T13:45:10.929Z,8.00
2023-03-21T13:48:57.804Z,9.90
2023-03-21T13:52:22.800Z,12.00
2023-03-21T13:55:28.773Z,14.00
2023-03-21T13:58:58.000Z,13.50
2023-03-21T14:02:12.990Z,8.80
2023-03-21T14:05:22.901Z,9.30
2023-03-21T14:08:37.218Z,11.10
2023-03-21T14:11:46.493Z,11.50
2023-03-21T14:15:06.885Z,11.60
2023-03-21T14:18:27.869Z,12.70
2023-03-21T14:21:38.506Z,8.00
2023-03-21T14:24:47.694Z,9.00
2023-03-21T14:27:55.171Z,10.70
2023-03-21T14:31:01.070Z,12.40
2023-03-21T14:34:04.323Z,10.80
2023-03-21T14:37:10.717Z,11.40
2023-03-21T14:40:25.855Z,7.10
2023-03-21T14:43:29.080Z,6.90
2023-03-21T14:46:33.590Z,8.50
2023-03-21T14:49:38.184Z,10.10
2023-03-21T14:52:41.409Z,11.70
2023-03-21T14:55:48.051Z,11.40
2023-03-21T14:58:53.408Z,11.60
2023-03-21T15:01:56.329Z,7.90
2023-03-21T15:05:11.090Z,7.30
2023-03-21T15:08:18.477Z,9.30
2023-03-21T15:11:30.771Z,12.90
2023-03-21T15:14:35.438Z,11.80
2023-03-21T15:17:38.408Z,13.40
2023-03-21T15:20:41.632Z,12.90
2023-03-21T15:23:51.320Z,8.80
2023-03-21T15:26:59.953Z,8.10
2023-03-21T15:33:09.510Z,11.90
2023-03-21T15:36:12.223Z,13.10
2023-03-21T15:39:21.743Z,12.90
2023-03-21T15:42:40.904Z,12.70
2023-03-21T15:49:09.554Z,6.70
2023-03-21T15:52:16.948Z,8.80
2023-03-21T15:55:35.569Z,11.10
2023-03-21T15:58:44.076Z,14.00
2023-03-21T16:01:49.118Z,14.40
2023-03-21T16:05:22.313Z,13.80
2023-03-21T16:08:28.560Z,14.80
2023-03-21T16:11:40.378Z,14.10
2023-03-21T16:14:43.310Z,13.30
2023-03-21T16:17:54.172Z,11.50
2023-03-21T16:20:59.253Z,14.10
2023-03-21T16:24:02.342Z,16.50
2023-03-21T16:27:05.669Z,17.20
2023-03-21T16:30:11.784Z,16.30
2023-03-21T16:33:14.789Z,14.80
2023-03-21T16:36:21.601Z,11.30
2023-03-21T16:39:28.856Z,10.70
2023-03-21T16:42:33.072Z,10.70
2023-03-21T16:45:37.266Z,14.30
2023-03-21T16:48:40.807Z,15.10
2023-03-21T16:51:43.563Z,14.30
2023-03-21T16:54:46.401Z,14.80
2023-03-21T16:57:53.706Z,16.60
2023-03-21T17:00:57.140Z,9.40
2023-03-21T17:04:00.369Z,8.10
2023-03-21T17:07:03.121Z,9.40
2023-03-21T17:10:16.067Z,11.20
2023-03-21T17:13:18.987Z,13.50
2023-03-21T17:16:26.764Z,13.50
2023-03-21T17:19:30.199Z,14.10
2023-03-21T17:22:32.951Z,15.10
2023-03-21T17:25:36.890Z,8.70
2023-03-21T17:28:41.446Z,8.50
2023-03-21T17:31:51.168Z,9.60
2023-03-21T17:34:54.059Z,11.60
2023-03-21T17:38:00.534Z,13.10
2023-03-21T17:41:03.217Z,14.20
2023-03-21T17:44:06.592Z,15.30
2023-03-21T17:47:11.108Z,16.40
2023-03-21T17:50:17.477Z,11.00
2023-03-21T17:53:20.761Z,9.60
2023-03-21T17:56:26.979Z,11.20
2023-03-21T17:59:30.044Z,12.90
2023-03-21T18:02:33.306Z,15.90
2023-03-21T18:05:37.620Z,15.70
2023-03-21T18:08:42.357Z,18.00
2023-03-21T18:11:46.322Z,17.10
2023-03-21T18:14:49.571Z,12.20
2023-03-21T18:17:53.216Z,12.40
2023-03-21T18:20:58.362Z,13.40
2023-03-21T18:24:01.496Z,16.60
2023-03-21T18:27:04.768Z,18.40
2023-03-21T18:30:32.836Z,20.30
2023-03-21T18:33:40.672Z,20.20
2023-03-21T18:36:43.959Z,13.30
2023-03-21T18:39:46.677Z,13.30
2023-03-21T18:43:44.168Z,14.40
2023-03-21T18:46:13.873Z,16.70
2023-03-21T18:52:41.459Z,21.40
2023-03-21T18:55:46.434Z,22.70
2023-03-21T18:58:50.411Z,17.70
2023-03-21T19:01:53.475Z,16.30
2023-03-21T19:04:57.968Z,16.00
2023-03-21T19:08:01.396Z,18.90
2023-03-21T19:11:06.787Z,21.90
2023-03-21T19:14:11.715Z,23.90
2023-03-21T19:18:15.337Z,24.30
2023-03-21T19:20:44.832Z,21.80
2023-03-21T19:24:22.994Z,16.90
2023-03-21T19:27:13.507Z,19.40
2023-03-21T19:30:16.761Z,22.90
2023-03-21T19:33:21.201Z,23.40
2023-03-21T19:36:26.369Z,17.70
2023-03-21T19:39:29.937Z,15.10
2023-03-21T19:42:34.649Z,16.80
2023-03-21T19:45:37.802Z,19.10
2023-03-21T19:48:44.059Z,22.00
2023-03-21T19:51:48.758Z,23.40
2023-03-21T19:54:53.763Z,25.50
2023-03-21T19:57:56.624Z,20.00
2023-03-21T20:00:59.698Z,21.30
2023-03-21T20:04:02.534Z,19.30
2023-03-21T20:07:05.389Z,23.60
2023-03-21T20:10:09.666Z,25.50
2023-03-21T20:13:12.434Z,19.10
2023-03-21T20:16:20.461Z,18.70
2023-03-21T20:19:23.463Z,17.30
2023-03-21T20:22:46.100Z,20.80
2023-03-21T20:25:49.970Z,25.60
2023-03-21T20:29:37.230Z,25.00
2023-03-21T20:32:22.735Z,17.50
2023-03-21T20:36:06.252Z,19.10
2023-03-21T20:38:52.230Z,20.20
2023-03-21T20:41:54.918Z,21.50
2023-03-21T20:45:00.839Z,26.70
2023-03-21T20:48:04.048Z,27.90
2023-03-21T20:52:14.892Z,21.30
2023-03-21T20:54:35.296Z,18.60
2023-03-21T20:57:39.049Z,21.30
2023-03-21T21:00:43.101Z,29.00
2023-03-21T21:03:45.784Z,33.10
2023-03-21T21:06:48.764Z,31.90
2023-03-21T21:09:53.570Z,24.60
2023-03-21T21:12:57.036Z,24.90
2023-03-21T21:16:12.075Z,25.30
2023-03-21T21:19:15.964Z,25.50
2023-03-21T21:22:18.782Z,27.80
2023-03-21T21:25:26.075Z,38.70
2023-03-21T21:28:48.945Z,27.00
2023-03-21T21:32:11.475Z,24.10
2023-03-21T21:39:56.790Z,27.00
2023-03-21T21:55:50.680Z,31.60
2023-03-21T22:02:22.250Z,34.50
2023-03-21T22:05:48.188Z,36.80
2023-03-21T22:12:57.859Z,30.50
2023-03-21T22:16:23.332Z,30.20
2023-03-21T22:20:02.658Z,35.40
2023-03-21T22:27:13.152Z,36.40
2023-03-21T22:30:29.637Z,35.60
2023-03-21T22:34:08.674Z,31.30
2023-03-21T22:37:53.965Z,30.50
2023-03-21T22:41:32.345Z,34.60
2023-03-21T22:45:23.289Z,42.10
2023-03-21T22:48:50.476Z,36.90
2023-03-21T22:52:09.139Z,31.60
2023-03-21T22:55:36.724Z,36.60
2023-03-21T22:58:41.825Z,39.80
2023-03-21T23:01:45.585Z,38.10
2023-03-21T23:04:48.349Z,29.60
2023-03-21T23:07:51.124Z,32.90
2023-03-21T23:10:54.260Z,37.60
2023-03-21T23:14:07.249Z,47.10
2023-03-21T23:17:12.635Z,40.60
2023-03-21T23:20:15.420Z,33.40
2023-03-21T23:23:18.304Z,32.50
2023-03-21T23:26:23.345Z,33.20
2023-03-21T23:29:26.106Z,38.70
2023-03-21T23:32:28.842Z,38.60
2023-03-21T23:35:36.066Z,46.90
2023-03-21T23:38:39.083Z,34.40
2023-03-21T23:41:42.887Z,31.80
2023-03-21T23:44:45.882Z,33.50
2023-03-21T23:47:48.609Z,36.20
2023-03-21T23:50:51.330Z,42.70
2023-03-21T23:53:56.650Z,45.60
2023-03-21T23:56:59.374Z,38.30
